createdAt,value
2022-08-19T00:01:43.460Z,101435.34
2022-08-19T00:04:13.372Z,101422.94
2022-08-19T00:06:43.747Z,101428.50
2022-08-19T00:09:13.816Z,101429.16
2022-08-19T00:11:41.860Z,101430.78
2022-08-19T00:14:10.764Z,101427.47
2022-08-19T00:16:39.667Z,101421.69
2022-08-19T00:19:08.173Z,101427.91
2022-08-19T00:21:37.653Z,101423.16
2022-08-19T00:24:07.699Z,101422.53
2022-08-19T00:26:35.789Z,101420.00
2022-08-19T00:29:04.250Z,101431.19
2022-08-19T00:31:32.484Z,101433.25
2022-08-19T00:34:00.547Z,101447.75
2022-08-19T00:36:29.570Z,101442.13
2022-08-19T00:38:57.606Z,101441.88
2022-08-19T00:41:27.118Z,101447.03
2022-08-19T00:44:05.672Z,101439.59
2022-08-19T00:46:34.584Z,101447.69
2022-08-19T00:49:03.393Z,101450.56
2022-08-19T00:51:33.469Z,101448.09
2022-08-19T00:54:01.773Z,101442.72
2022-08-19T00:56:32.743Z,101450.31
2022-08-19T00:59:00.813Z,101446.97
2022-08-19T01:01:28.944Z,101444.69
2022-08-19T01:03:58.766Z,101435.88
2022-08-19T01:06:27.040Z,101432.09
2022-08-19T01:08:55.935Z,101423.09
2022-08-19T01:11:23.984Z,101427.47
2022-08-19T01:13:53.650Z,101419.75
2022-08-19T01:16:22.944Z,101418.75
2022-08-19T01:18:51.321Z,101415.81
2022-08-19T01:21:20.770Z,101422.66
2022-08-19T01:23:50.196Z,101426.16
2022-08-19T01:26:19.557Z,101428.22
2022-08-19T01:28:48.447Z,101419.88
2022-08-19T01:31:26.489Z,101437.72
2022-08-19T01:33:57.539Z,101433.94
2022-08-19T01:36:27.463Z,101429.75
2022-08-19T01:38:57.327Z,101438.41
2022-08-19T01:41:25.368Z,101440.44
2022-08-19T01:44:03.799Z,101427.75
2022-08-19T01:46:41.507Z,101442.72
2022-08-19T01:49:09.645Z,101450.78
2022-08-19T01:51:40.278Z,101449.72
2022-08-19T01:54:10.233Z,101439.63
2022-08-19T01:56:39.265Z,101442.97
2022-08-19T01:59:09.297Z,101430.16
2022-08-19T02:01:37.348Z,101433.28
2022-08-19T02:04:06.063Z,101427.91
2022-08-19T02:06:34.215Z,101429.38
2022-08-19T02:09:02.288Z,101432.69
2022-08-19T02:11:34.518Z,101425.28
2022-08-19T02:14:03.026Z,101424.91
2022-08-19T02:16:31.427Z,101427.84
2022-08-19T02:19:01.582Z,101427.47
2022-08-19T02:21:29.897Z,101427.47
2022-08-19T02:23:58.038Z,101432.88
2022-08-19T02:26:27.473Z,101432.22
2022-08-19T02:28:57.032Z,101431.81
2022-08-19T02:31:26.840Z,101438.50
2022-08-19T02:33:56.682Z,101431.44
2022-08-19T02:36:25.356Z,101437.00
2022-08-19T02:38:54.844Z,101438.44
2022-08-19T02:41:26.883Z,101442.91
2022-08-19T02:44:26.327Z,101457.34
2022-08-19T02:46:47.296Z,101446.31
2022-08-19T02:49:17.460Z,101452.06
2022-08-19T02:51:46.692Z,101450.38
2022-08-19T02:54:14.803Z,101456.97
2022-08-19T02:56:43.069Z,101458.19
2022-08-19T02:59:12.870Z,101466.28
2022-08-19T03:01:42.478Z,101463.59
2022-08-19T03:04:12.927Z,101461.91
2022-08-19T03:06:41.317Z,101457.72
2022-08-19T03:09:09.384Z,101458.66
2022-08-19T03:11:37.396Z,101451.75
2022-08-19T03:14:05.656Z,101469.94
2022-08-19T03:16:36.241Z,101466.97
2022-08-19T03:19:04.374Z,101476.56
2022-08-19T03:21:34.046Z,101482.16
2022-08-19T03:24:03.348Z,101486.88
2022-08-19T03:26:31.471Z,101472.25
2022-08-19T03:28:59.985Z,101481.34
2022-08-19T03:31:43.731Z,101464.34
2022-08-19T03:34:20.153Z,101476.13
2022-08-19T03:36:48.216Z,101475.28
2022-08-19T03:39:16.303Z,101472.97
2022-08-19T03:41:48.135Z,101476.56
2022-08-19T03:44:18.352Z,101479.38
2022-08-19T03:46:48.593Z,101476.41
2022-08-19T03:49:18.303Z,101474.09
2022-08-19T03:51:46.891Z,101477.97
2022-08-19T03:54:15.816Z,101484.53
2022-08-19T03:56:44.489Z,101486.78
2022-08-19T03:59:14.449Z,101497.72
2022-08-19T04:01:42.549Z,101499.75
2022-08-19T04:04:12.071Z,101507.47
2022-08-19T04:06:40.588Z,101501.41
2022-08-19T04:09:12.450Z,101505.50
2022-08-19T04:11:43.443Z,101503.16
2022-08-19T04:14:12.554Z,101502.06
2022-08-19T04:16:41.852Z,101507.31
2022-08-19T04:19:11.306Z,101509.06
2022-08-19T04:21:39.353Z,101514.16
2022-08-19T04:24:08.098Z,101514.81
2022-08-19T04:26:37.650Z,101513.88
2022-08-19T04:29:12.508Z,101520.34
2022-08-19T04:31:41.924Z,101519.56
2022-08-19T04:34:12.599Z,101527.66
2022-08-19T04:36:42.319Z,101520.84
2022-08-19T04:39:11.687Z,101521.09
2022-08-19T04:41:57.013Z,101522.81
2022-08-19T04:44:25.074Z,101524.19
2022-08-19T04:46:53.244Z,101529.38
2022-08-19T04:49:23.921Z,101530.94
2022-08-19T04:51:54.916Z,101530.63
2022-08-19T04:54:37.291Z,101545.56
2022-08-19T04:57:07.659Z,101538.41
2022-08-19T04:59:36.155Z,101539.09
2022-08-19T05:02:04.284Z,101543.47
2022-08-19T05:04:34.671Z,101542.13
2022-08-19T05:07:02.823Z,101536.44
2022-08-19T05:09:36.197Z,101537.97
2022-08-19T05:12:20.135Z,101532.63
2022-08-19T05:14:48.922Z,101546.53
2022-08-19T05:17:27.731Z,101548.03
2022-08-19T05:20:15.224Z,101543.38
2022-08-19T05:22:43.388Z,101539.69
2022-08-19T05:25:14.258Z,101541.34
2022-08-19T05:27:42.561Z,101543.34
2022-08-19T05:30:11.484Z,101555.06
2022-08-19T05:32:39.553Z,101553.38
2022-08-19T05:35:10.497Z,101553.06
2022-08-19T05:37:41.202Z,101566.44
2022-08-19T05:40:10.763Z,101559.41
2022-08-19T05:42:38.852Z,101564.97
2022-08-19T05:45:08.016Z,101572.16
2022-08-19T05:47:36.599Z,101575.16
2022-08-19T05:50:11.956Z,101577.16
2022-08-19T05:52:43.823Z,101575.47
2022-08-19T05:55:18.063Z,101581.88
2022-08-19T05:57:46.148Z,101576.50
2022-08-19T06:00:14.928Z,101582.72
2022-08-19T06:02:43.244Z,101579.84
2022-08-19T06:05:13.186Z,101584.34
2022-08-19T06:07:41.534Z,101591.91
2022-08-19T06:10:11.255Z,101588.38
2022-08-19T06:12:39.390Z,101596.09
2022-08-19T06:15:09.535Z,101591.25
2022-08-19T06:17:37.647Z,101585.38
2022-08-19T06:20:06.149Z,101579.16
2022-08-19T06:22:39.541Z,101581.69
2022-08-19T06:25:10.103Z,101586.56
2022-08-19T06:27:48.301Z,101583.53
2022-08-19T06:30:26.528Z,101582.53
2022-08-19T06:32:54.563Z,101594.63
2022-08-19T06:35:22.761Z,101593.44
2022-08-19T06:37:53.566Z,101605.34
2022-08-19T06:40:22.151Z,101598.31
2022-08-19T06:42:55.088Z,101604.34
2022-08-19T06:45:25.009Z,101601.31
2022-08-19T06:48:02.134Z,101599.13
2022-08-19T06:50:31.400Z,101602.78
2022-08-19T06:53:03.572Z,101610.97
2022-08-19T06:55:33.262Z,101612.59
2022-08-19T06:58:04.689Z,101618.75
2022-08-19T07:00:33.954Z,101621.53
2022-08-19T07:03:05.959Z,101618.13
2022-08-19T07:05:40.984Z,101614.69
2022-08-19T07:08:15.588Z,101622.81
2022-08-19T07:10:46.155Z,101612.81
2022-08-19T07:13:14.655Z,101621.78
2022-08-19T07:15:42.880Z,101626.06
2022-08-19T07:18:11.837Z,101633.72
2022-08-19T07:20:42.076Z,101627.91
2022-08-19T07:23:16.039Z,101641.63
2022-08-19T07:25:51.370Z,101634.88
2022-08-19T07:28:24.391Z,101639.06
2022-08-19T07:30:53.426Z,101655.22
2022-08-19T07:33:21.709Z,101643.91
2022-08-19T07:35:51.257Z,101646.91
2022-08-19T07:38:19.457Z,101650.53
2022-08-19T07:40:49.024Z,101656.50
2022-08-19T07:43:19.409Z,101657.44
2022-08-19T07:45:48.465Z,101636.81
2022-08-19T07:48:17.292Z,101648.13
2022-08-19T07:50:45.730Z,101651.13
2022-08-19T07:53:14.184Z,101661.50
2022-08-19T07:55:43.805Z,101659.84
2022-08-19T07:58:14.802Z,101661.72
2022-08-19T08:00:43.194Z,101673.78
2022-08-19T08:03:11.527Z,101676.13
2022-08-19T08:05:57.236Z,101678.41
2022-08-19T08:08:44.101Z,101674.53
2022-08-19T08:11:16.682Z,101676.66
2022-08-19T08:14:00.691Z,101686.22
2022-08-19T08:16:33.058Z,101686.59
2022-08-19T08:19:07.256Z,101688.25
2022-08-19T08:21:49.032Z,101692.91
2022-08-19T08:24:17.134Z,101686.06
2022-08-19T08:26:57.561Z,101697.38
2022-08-19T08:29:34.911Z,101695.78
2022-08-19T08:32:14.894Z,101703.94
2022-08-19T08:34:43.438Z,101708.97
2022-08-19T08:37:11.706Z,101717.06
2022-08-19T08:39:43.328Z,101709.63
2022-08-19T08:42:17.639Z,101707.84
2022-08-19T08:44:51.131Z,101713.38
2022-08-19T08:47:21.159Z,101710.69
2022-08-19T08:49:52.937Z,101717.00
2022-08-19T08:52:22.546Z,101705.06
2022-08-19T08:54:55.032Z,101717.81
2022-08-19T08:57:30.559Z,101712.19
2022-08-19T09:00:15.567Z,101713.66
2022-08-19T09:02:44.526Z,101715.25
2022-08-19T09:05:16.741Z,101724.44
2022-08-19T09:07:49.615Z,101720.53
2022-08-19T09:10:26.713Z,101724.50
2022-08-19T09:12:58.681Z,101721.16
2022-08-19T09:15:33.592Z,101719.28
2022-08-19T09:18:07.515Z,101722.63
2022-08-19T09:20:36.082Z,101713.56
2022-08-19T09:23:10.565Z,101719.75
2022-08-19T09:25:41.199Z,101712.66
2022-08-19T09:28:15.224Z,101713.50
2022-08-19T09:30:53.098Z,101717.53
2022-08-19T09:33:25.189Z,101727.03
2022-08-19T09:35:54.002Z,101728.66
2022-08-19T09:38:23.558Z,101715.34
2022-08-19T09:40:54.825Z,101717.53
2022-08-19T09:43:32.923Z,101720.91
2022-08-19T09:46:16.875Z,101722.13
2022-08-19T09:48:49.390Z,101715.63
2022-08-19T09:51:18.930Z,101716.66
2022-08-19T09:53:51.541Z,101716.59
2022-08-19T09:56:22.036Z,101714.13
2022-08-19T09:58:52.076Z,101724.66
2022-08-19T10:01:25.064Z,101709.19
2022-08-19T10:03:54.474Z,101714.44
2022-08-19T10:06:44.121Z,101715.22
2022-08-19T10:09:13.710Z,101721.00
2022-08-19T10:11:46.983Z,101715.59
2022-08-19T10:14:24.629Z,101714.25
2022-08-19T10:16:55.174Z,101731.94
2022-08-19T10:19:26.310Z,101726.63
2022-08-19T10:22:00.107Z,101736.28
2022-08-19T10:24:29.261Z,101726.59
2022-08-19T10:27:11.631Z,101737.25
2022-08-19T10:29:46.507Z,101734.81
2022-08-19T10:32:16.594Z,101742.34
2022-08-19T10:34:48.408Z,101742.97
2022-08-19T10:37:23.796Z,101751.53
2022-08-19T10:39:57.503Z,101744.56
2022-08-19T10:42:27.103Z,101737.53
2022-08-19T10:44:58.132Z,101746.50
2022-08-19T10:47:31.449Z,101740.53
2022-08-19T10:50:17.632Z,101747.84
2022-08-19T10:52:51.646Z,101742.25
2022-08-19T10:55:39.223Z,101744.19
2022-08-19T10:58:13.248Z,101743.59
2022-08-19T11:00:42.551Z,101741.53
2022-08-19T11:03:17.082Z,101745.84
2022-08-19T11:05:45.402Z,101737.94
2022-08-19T11:08:22.114Z,101760.34
2022-08-19T11:10:52.617Z,101758.31
2022-08-19T11:13:21.112Z,101755.88
2022-08-19T11:15:49.560Z,101744.16
2022-08-19T11:18:20.173Z,101748.59
2022-08-19T11:20:50.169Z,101755.31
2022-08-19T11:23:20.960Z,101741.59
2022-08-19T11:25:49.430Z,101750.03
2022-08-19T11:28:17.564Z,101750.97
2022-08-19T11:30:46.399Z,101748.50
2022-08-19T11:33:14.890Z,101758.47
2022-08-19T11:35:46.375Z,101756.47
2022-08-19T11:38:15.623Z,101761.09
2022-08-19T11:40:44.397Z,101749.09
2022-08-19T11:43:16.033Z,101755.28
2022-08-19T11:45:44.254Z,101765.13
2022-08-19T11:48:17.740Z,101758.31
2022-08-19T11:50:47.559Z,101762.75
2022-08-19T11:53:19.126Z,101779.47
2022-08-19T11:55:49.168Z,101767.78
2022-08-19T11:58:21.558Z,101767.59
2022-08-19T12:00:50.088Z,101757.59
2022-08-19T12:03:20.530Z,101766.56
2022-08-19T12:05:50.844Z,101755.72
2022-08-19T12:08:19.369Z,101771.13
2022-08-19T12:10:47.639Z,101771.13
2022-08-19T12:13:19.574Z,101768.19
2022-08-19T12:15:55.920Z,101783.59
2022-08-19T12:18:25.650Z,101774.41
2022-08-19T12:20:56.337Z,101767.72
2022-08-19T12:23:24.574Z,101769.00
2022-08-19T12:25:52.883Z,101762.69
2022-08-19T12:28:21.402Z,101764.13
2022-08-19T12:30:52.454Z,101779.84
2022-08-19T12:33:24.596Z,101777.38
2022-08-19T12:35:54.181Z,101772.81
2022-08-19T12:38:25.339Z,101779.09
2022-08-19T12:41:00.314Z,101783.66
2022-08-19T12:43:30.654Z,101779.22
2022-08-19T12:45:58.888Z,101784.41
2022-08-19T12:48:34.593Z,101778.91
2022-08-19T12:51:08.297Z,101785.50
2022-08-19T12:53:39.272Z,101775.25
2022-08-19T12:56:12.256Z,101783.00
2022-08-19T12:58:48.888Z,101779.38
2022-08-19T13:01:20.426Z,101773.13
2022-08-19T13:03:53.242Z,101780.66
2022-08-19T13:06:22.928Z,101771.63
2022-08-19T13:08:51.354Z,101785.03
2022-08-19T13:11:21.246Z,101788.81
2022-08-19T13:13:50.643Z,101773.22
2022-08-19T13:16:23.185Z,101784.03
2022-08-19T13:18:52.895Z,101789.00
2022-08-19T13:21:24.380Z,101787.56
2022-08-19T13:23:54.134Z,101791.91
2022-08-19T13:26:24.185Z,101794.63
2022-08-19T13:29:09.617Z,101791.25
2022-08-19T13:31:59.411Z,101792.53
2022-08-19T13:34:29.819Z,101792.38
2022-08-19T13:37:00.929Z,101786.75
2022-08-19T13:39:29.289Z,101789.91
2022-08-19T13:41:59.364Z,101789.09
2022-08-19T13:44:27.551Z,101795.13
2022-08-19T13:46:57.797Z,101794.06
2022-08-19T13:49:26.443Z,101792.81
2022-08-19T13:51:58.147Z,101804.50
2022-08-19T13:54:30.452Z,101801.38
2022-08-19T13:56:59.174Z,101799.94
2022-08-19T13:59:29.045Z,101798.69
2022-08-19T14:02:02.332Z,101788.44
2022-08-19T14:04:30.681Z,101795.69
2022-08-19T14:06:59.123Z,101791.94
2022-08-19T14:09:29.307Z,101787.75
2022-08-19T14:11:59.015Z,101785.59
2022-08-19T14:14:27.214Z,101785.69
2022-08-19T14:16:55.307Z,101787.66
2022-08-19T14:19:23.408Z,101801.53
2022-08-19T14:21:52.183Z,101798.28
2022-08-19T14:24:20.904Z,101806.81
2022-08-19T14:26:50.800Z,101807.53
2022-08-19T14:29:19.608Z,101795.28
2022-08-19T14:31:48.298Z,101785.66
2022-08-19T14:34:16.450Z,101792.28
2022-08-19T14:36:46.110Z,101797.00
2022-08-19T14:39:14.280Z,101785.72
2022-08-19T14:41:42.983Z,101788.81
2022-08-19T14:44:13.507Z,101789.88
2022-08-19T14:46:41.661Z,101794.25
2022-08-19T14:49:31.989Z,101794.75
2022-08-19T14:52:04.736Z,101785.69
2022-08-19T14:54:34.275Z,101791.72
2022-08-19T14:57:02.495Z,101781.72
2022-08-19T14:59:32.340Z,101795.66
2022-08-19T15:02:33.329Z,101795.88
2022-08-19T15:04:57.964Z,101796.13
2022-08-19T15:07:29.638Z,101799.66
2022-08-19T15:09:57.874Z,101803.22
2022-08-19T15:12:26.052Z,101801.66
2022-08-19T15:14:56.849Z,101804.81
2022-08-19T15:17:43.762Z,101799.84
2022-08-19T15:20:15.283Z,101800.19
2022-08-19T15:22:43.544Z,101800.31
2022-08-19T15:25:12.869Z,101810.25
2022-08-19T15:27:42.860Z,101799.75
2022-08-19T15:30:13.601Z,101799.38
2022-08-19T15:32:45.156Z,101791.94
2022-08-19T15:35:15.636Z,101786.19
2022-08-19T15:37:46.885Z,101800.03
2022-08-19T15:40:15.192Z,101795.22
2022-08-19T15:42:43.584Z,101790.06
2022-08-19T15:45:13.645Z,101809.41
2022-08-19T15:47:43.779Z,101808.44
2022-08-19T15:50:13.352Z,101802.84
2022-08-19T15:52:49.515Z,101803.44
2022-08-19T15:55:32.133Z,101800.31
2022-08-19T15:58:20.641Z,101795.28
2022-08-19T16:01:16.280Z,101802.72
2022-08-19T16:04:03.466Z,101805.59
2022-08-19T16:06:31.882Z,101806.38
2022-08-19T16:09:01.957Z,101798.03
2022-08-19T16:11:39.282Z,101797.91
2022-08-19T16:14:09.611Z,101807.41
2022-08-19T16:16:39.568Z,101804.63
2022-08-19T16:19:10.234Z,101801.81
2022-08-19T16:21:41.566Z,101791.69
2022-08-19T16:24:12.079Z,101808.69
2022-08-19T16:26:41.474Z,101810.91
2022-08-19T16:29:13.123Z,101819.63
2022-08-19T16:31:46.166Z,101820.41
2022-08-19T16:34:14.492Z,101831.31
2022-08-19T16:36:43.584Z,101821.38
2022-08-19T16:39:11.762Z,101823.00
2022-08-19T16:41:40.057Z,101818.53
2022-08-19T16:44:08.700Z,101820.69
2022-08-19T16:46:37.235Z,101824.53
2022-08-19T16:49:06.828Z,101822.25
2022-08-19T16:51:34.941Z,101820.34
2022-08-19T16:54:03.501Z,101814.63
2022-08-19T16:56:31.594Z,101815.84
2022-08-19T16:58:59.786Z,101817.09
2022-08-19T17:01:28.185Z,101821.09
2022-08-19T17:03:58.796Z,101815.72
2022-08-19T17:06:29.841Z,101817.22
2022-08-19T17:08:59.282Z,101817.81
2022-08-19T17:11:27.902Z,101808.56
2022-08-19T17:13:56.812Z,101822.09
2022-08-19T17:16:26.490Z,101814.56
2022-08-19T17:18:54.662Z,101811.38
2022-08-19T17:21:24.128Z,101818.91
2022-08-19T17:23:54.462Z,101814.72
2022-08-19T17:26:22.654Z,101823.28
2022-08-19T17:28:53.564Z,101812.97
2022-08-19T17:31:23.141Z,101830.56
2022-08-19T17:33:51.483Z,101830.25
2022-08-19T17:36:21.743Z,101825.78
2022-08-19T17:38:49.934Z,101830.06
2022-08-19T17:41:19.621Z,101834.25
2022-08-19T17:43:47.668Z,101827.13
2022-08-19T17:46:18.717Z,101825.38
2022-08-19T17:48:51.944Z,101821.22
2022-08-19T17:51:22.533Z,101825.78
2022-08-19T17:53:51.717Z,101820.66
2022-08-19T17:56:21.175Z,101815.09
2022-08-19T17:58:54.422Z,101823.88
2022-08-19T18:01:44.034Z,101832.72
2022-08-19T18:04:18.887Z,101842.00
2022-08-19T18:06:53.688Z,101850.94
2022-08-19T18:09:24.417Z,101847.50
2022-08-19T18:11:55.074Z,101849.09
2022-08-19T18:14:28.130Z,101861.53
2022-08-19T18:17:00.628Z,101859.28
2022-08-19T18:19:34.207Z,101857.53
2022-08-19T18:22:11.819Z,101852.34
2022-08-19T18:24:40.429Z,101851.50
2022-08-19T18:27:10.287Z,101855.38
2022-08-19T18:29:40.125Z,101847.13
2022-08-19T18:32:12.690Z,101862.63
2022-08-19T18:34:41.673Z,101850.00
2022-08-19T18:37:09.824Z,101857.06
2022-08-19T18:39:55.517Z,101855.56
2022-08-19T18:42:42.729Z,101856.59
2022-08-19T18:45:28.559Z,101854.09
2022-08-19T18:48:26.504Z,101861.97
2022-08-19T18:50:57.571Z,101872.50
2022-08-19T18:53:25.927Z,101873.44
2022-08-19T18:55:55.423Z,101873.53
2022-08-19T18:58:26.716Z,101871.00
2022-08-19T19:00:57.431Z,101874.94
2022-08-19T19:03:26.697Z,101867.69
2022-08-19T19:05:54.780Z,101873.53
2022-08-19T19:08:26.742Z,101871.94
2022-08-19T19:10:58.988Z,101882.81
2022-08-19T19:13:29.739Z,101866.47
2022-08-19T19:15:58.029Z,101861.72
2022-08-19T19:18:26.117Z,101866.28
2022-08-19T19:20:54.270Z,101873.81
2022-08-19T19:23:22.521Z,101871.75
2022-08-19T19:25:51.809Z,101878.75
2022-08-19T19:28:25.410Z,101880.97
2022-08-19T19:30:57.661Z,101873.44
2022-08-19T19:33:25.852Z,101870.25
2022-08-19T19:35:54.025Z,101868.97
2022-08-19T19:38:22.076Z,101869.72
2022-08-19T19:40:50.177Z,101871.09
2022-08-19T19:43:18.386Z,101872.50
2022-08-19T19:45:48.258Z,101867.00
2022-08-19T19:48:17.695Z,101873.97
2022-08-19T19:50:45.916Z,101873.66
2022-08-19T19:53:22.317Z,101887.53
2022-08-19T19:55:51.595Z,101884.72
2022-08-19T19:58:21.279Z,101883.03
2022-08-19T20:00:57.639Z,101878.19
2022-08-19T20:03:27.277Z,101876.69
2022-08-19T20:05:58.231Z,101875.56
2022-08-19T20:08:44.040Z,101878.03
2022-08-19T20:11:13.009Z,101878.44
2022-08-19T20:13:41.444Z,101883.44
2022-08-19T20:16:09.531Z,101876.84
2022-08-19T20:18:38.958Z,101882.34
2022-08-19T20:21:07.368Z,101883.50
2022-08-19T20:23:35.796Z,101877.94
2022-08-19T20:26:04.091Z,101883.81
2022-08-19T20:28:36.540Z,101889.66
2022-08-19T20:31:05.397Z,101888.47
2022-08-19T20:33:33.387Z,101888.09
2022-08-19T20:36:03.095Z,101886.44
2022-08-19T20:38:34.408Z,101893.47
2022-08-19T20:41:02.514Z,101887.25
2022-08-19T20:43:30.569Z,101890.16
2022-08-19T20:45:58.668Z,101890.16
2022-08-19T20:48:26.713Z,101890.50
2022-08-19T20:50:57.328Z,101898.41
2022-08-19T20:53:27.325Z,101890.50
2022-08-19T20:55:59.910Z,101883.91
2022-08-19T20:58:28.333Z,101885.69
2022-08-19T21:00:59.566Z,101888.66
2022-08-19T21:03:29.803Z,101897.78
2022-08-19T21:05:58.107Z,101894.25
2022-08-19T21:08:28.073Z,101900.84
2022-08-19T21:10:57.035Z,101898.88
2022-08-19T21:13:25.184Z,101899.25
2022-08-19T21:15:53.289Z,101895.53
2022-08-19T21:18:22.118Z,101897.56
2022-08-19T21:20:50.270Z,101889.00
2022-08-19T21:23:19.437Z,101904.72
2022-08-19T21:25:54.169Z,101904.44
2022-08-19T21:28:34.362Z,101906.13
2022-08-19T21:31:05.374Z,101902.75
2022-08-19T21:33:33.478Z,101904.44
2022-08-19T21:36:01.551Z,101899.34
2022-08-19T21:38:29.602Z,101893.66
2022-08-19T21:40:59.063Z,101891.97
2022-08-19T21:43:27.160Z,101906.75
2022-08-19T21:45:55.212Z,101897.81
2022-08-19T21:48:23.332Z,101905.59
2022-08-19T21:50:51.874Z,101894.97
2022-08-19T21:53:22.718Z,101900.53
2022-08-19T21:55:53.389Z,101902.44
2022-08-19T21:58:29.967Z,101910.88
2022-08-19T22:00:59.614Z,101900.09
2022-08-19T22:03:27.775Z,101906.78
2022-08-19T22:05:55.847Z,101900.06
2022-08-19T22:08:23.882Z,101907.75
2022-08-19T22:10:52.455Z,101907.75
2022-08-19T22:13:20.770Z,101906.28
2022-08-19T22:15:51.959Z,101913.81
2022-08-19T22:18:20.093Z,101909.94
2022-08-19T22:20:48.892Z,101922.56
2022-08-19T22:23:16.912Z,101910.09
2022-08-19T22:25:46.166Z,101914.47
2022-08-19T22:28:15.130Z,101903.69
2022-08-19T22:30:51.102Z,101903.22
2022-08-19T22:33:21.243Z,101906.47
2022-08-19T22:35:49.737Z,101897.22
2022-08-19T22:38:17.806Z,101903.44
2022-08-19T22:40:47.441Z,101905.47
2022-08-19T22:43:16.744Z,101906.16
2022-08-19T22:45:44.993Z,101906.78
2022-08-19T22:48:14.552Z,101907.31
2022-08-19T22:51:04.869Z,101909.47
2022-08-19T22:53:32.346Z,101899.75
2022-08-19T22:56:00.374Z,101916.25
2022-08-19T22:58:28.902Z,101903.44
2022-08-19T23:00:58.193Z,101912.91
2022-08-19T23:03:26.405Z,101902.50
2022-08-19T23:05:56.752Z,101895.78
2022-08-19T23:08:25.235Z,101898.75
2022-08-19T23:10:53.219Z,101906.84
2022-08-19T23:13:21.315Z,101902.13
2022-08-19T23:15:49.404Z,101897.13
2022-08-19T23:18:17.476Z,101901.00
2022-08-19T23:20:45.805Z,101896.63
2022-08-19T23:23:18.674Z,101897.81
2022-08-19T23:25:47.112Z,101897.34
2022-08-19T23:28:32.730Z,101899.94
2022-08-19T23:31:00.845Z,101900.88
2022-08-19T23:33:44.376Z,101893.41
2022-08-19T23:36:18.552Z,101878.00
2022-08-19T23:38:48.894Z,101887.09
2022-08-19T23:41:17.865Z,101889.50
2022-08-19T23:43:45.955Z,101893.53
2022-08-19T23:46:27.890Z,101893.06
2022-08-19T23:48:56.899Z,101898.63
2022-08-19T23:51:26.509Z,101888.88
2022-08-19T23:53:55.969Z,101891.38
2022-08-19T23:56:24.028Z,101889.00
2022-08-19T23:58:52.043Z,101878.22
